createdAt,value
2016-03-03T00:00:51.597Z,99.99
2016-03-03T00:01:51.569Z,99.91
2016-03-03T00:02:51.540Z,99.99
2016-03-03T00:03:51.511Z,99.99
2016-03-03T00:04:51.483Z,99.99
2016-03-03T00:05:51.454Z,99.99
2016-03-03T00:06:51.426Z,99.82
2016-03-03T00:07:51.397Z,99.99
2016-03-03T00:08:51.368Z,99.99
2016-03-03T00:09:51.355Z,99.99
2016-03-03T00:10:51.312Z,99.99
2016-03-03T00:11:51.282Z,99.99
2016-03-03T00:12:51.254Z,99.99
2016-03-03T00:13:51.226Z,99.99
2016-03-03T00:14:51.198Z,99.99
2016-03-03T00:15:51.168Z,99.99
2016-03-03T00:16:51.140Z,99.99
2016-03-03T00:17:51.112Z,99.99
2016-03-03T00:18:51.083Z,99.99
2016-03-03T00:19:51.054Z,99.99
2016-03-03T00:20:51.026Z,99.99
2016-03-03T00:21:50.997Z,99.99
2016-03-03T00:22:50.969Z,99.99
2016-03-03T00:23:50.940Z,99.99
2016-03-03T00:24:50.911Z,99.99
2016-03-03T00:25:50.884Z,99.99
2016-03-03T00:26:50.855Z,99.99
2016-03-03T00:27:50.826Z,99.72
2016-03-03T00:28:50.797Z,99.63
2016-03-03T00:29:50.769Z,99.82
2016-03-03T00:30:50.741Z,99.99
2016-03-03T00:31:50.711Z,99.99
2016-03-03T00:32:50.683Z,99.99
2016-03-03T00:33:50.654Z,99.99
2016-03-03T00:34:50.611Z,99.99
2016-03-03T00:35:50.597Z,99.99
2016-03-03T00:36:50.553Z,99.99
2016-03-03T00:37:50.540Z,99.99
2016-03-03T00:38:50.496Z,99.99
2016-03-03T00:39:50.483Z,99.99
2016-03-03T00:40:50.454Z,99.99
2016-03-03T00:41:50.410Z,99.99
2016-03-03T00:42:50.413Z,99.99
2016-03-03T00:43:50.353Z,99.99
2016-03-03T00:44:50.325Z,99.99
2016-03-03T00:45:50.296Z,99.99
2016-03-03T00:46:50.267Z,99.99
2016-03-03T00:47:50.240Z,99.99
2016-03-03T00:48:50.210Z,99.99
2016-03-03T00:49:50.181Z,99.99
2016-03-03T00:50:50.153Z,99.99
2016-03-03T00:51:50.126Z,99.99
2016-03-03T00:52:50.096Z,99.99
2016-03-03T00:53:50.067Z,99.99
2016-03-03T00:54:50.039Z,99.99
2016-03-03T00:55:50.011Z,99.99
2016-03-03T00:56:49.982Z,99.99
2016-03-03T00:57:49.954Z,99.99
2016-03-03T00:58:49.925Z,99.99
2016-03-03T00:59:49.897Z,99.99
2016-03-03T01:00:49.867Z,99.99
2016-03-03T01:01:49.839Z,99.99
2016-03-03T01:02:49.811Z,99.99
2016-03-03T01:03:49.782Z,99.99
2016-03-03T01:04:49.754Z,99.99
2016-03-03T01:05:49.725Z,99.99
2016-03-03T01:06:49.681Z,99.99
2016-03-03T01:07:49.668Z,99.99
2016-03-03T01:08:49.623Z,99.99
2016-03-03T01:09:49.611Z,99.99
2016-03-03T01:10:49.566Z,99.99
2016-03-03T01:11:49.538Z,99.99
2016-03-03T01:12:49.525Z,99.99
2016-03-03T01:13:49.482Z,99.99
2016-03-03T01:14:49.452Z,99.99
2016-03-03T01:15:49.424Z,99.99
2016-03-03T01:16:49.396Z,99.99
2016-03-03T01:17:49.367Z,99.99
2016-03-03T01:18:49.338Z,99.99
2016-03-03T01:19:49.310Z,99.99
2016-03-03T01:20:49.281Z,99.99
2016-03-03T01:21:49.253Z,99.99
2016-03-03T01:22:49.224Z,99.99
2016-03-03T01:23:49.195Z,99.99
2016-03-03T01:24:49.167Z,99.99
2016-03-03T01:25:49.138Z,99.99
2016-03-03T01:26:49.109Z,99.99
2016-03-03T01:27:49.081Z,99.99
2016-03-03T01:28:49.037Z,99.99
2016-03-03T01:29:49.009Z,99.99
2016-03-03T01:30:48.980Z,99.99
2016-03-03T01:31:48.951Z,99.99
2016-03-03T01:32:48.922Z,99.99
2016-03-03T01:33:48.894Z,99.99
2016-03-03T01:34:48.865Z,99.99
2016-03-03T01:35:48.836Z,99.99
2016-03-03T01:36:48.808Z,99.99
2016-03-03T01:37:48.780Z,99.99
2016-03-03T01:38:48.751Z,99.99
2016-03-03T01:39:48.722Z,99.99
2016-03-03T01:40:48.694Z,99.99
2016-03-03T01:41:48.665Z,99.99
2016-03-03T01:42:48.637Z,99.99
2016-03-03T01:43:48.608Z,99.99
2016-03-03T01:44:48.580Z,99.99
2016-03-03T01:45:48.551Z,99.99
2016-03-03T01:46:48.524Z,99.99
2016-03-03T01:47:48.494Z,99.99
2016-03-03T01:48:48.466Z,99.99
2016-03-03T01:49:48.437Z,99.99
2016-03-03T01:50:48.393Z,99.99
2016-03-03T01:51:48.380Z,99.99
2016-03-03T01:52:48.337Z,99.99
2016-03-03T01:53:48.320Z,99.99
2016-03-03T01:54:48.292Z,99.99
2016-03-03T01:55:48.264Z,99.99
2016-03-03T01:56:48.234Z,99.99
2016-03-03T01:57:48.205Z,99.99
2016-03-03T01:58:48.161Z,99.99
2016-03-03T01:59:48.133Z,99.99
2016-03-03T02:00:48.105Z,99.99
2016-03-03T02:01:48.076Z,99.99
2016-03-03T02:02:48.047Z,99.99
2016-03-03T02:03:48.018Z,99.99
2016-03-03T02:04:47.990Z,99.99
2016-03-03T02:05:47.961Z,99.99
2016-03-03T02:06:47.933Z,99.99
2016-03-03T02:07:47.905Z,99.99
2016-03-03T02:08:47.877Z,99.99
2016-03-03T02:09:47.847Z,99.99
2016-03-03T02:10:47.819Z,99.99
2016-03-03T02:11:47.791Z,99.99
2016-03-03T02:12:47.763Z,99.99
2016-03-03T02:13:47.733Z,99.99
2016-03-03T02:14:47.704Z,99.99
2016-03-03T02:15:47.676Z,99.99
2016-03-03T02:16:47.648Z,99.99
2016-03-03T02:17:47.619Z,99.99
2016-03-03T02:18:47.576Z,99.99
2016-03-03T02:19:47.546Z,99.99
2016-03-03T02:20:47.518Z,99.99
2016-03-03T02:21:47.489Z,99.99
2016-03-03T02:22:47.461Z,99.99
2016-03-03T02:23:47.431Z,99.99
2016-03-03T02:24:47.404Z,99.99
2016-03-03T02:25:47.375Z,99.99
2016-03-03T02:26:47.347Z,99.99
2016-03-03T02:27:47.317Z,99.99
2016-03-03T02:28:47.289Z,99.99
2016-03-03T02:29:47.260Z,99.99
2016-03-03T02:30:47.232Z,99.99
2016-03-03T02:31:47.204Z,99.99
2016-03-03T02:32:47.175Z,99.99
2016-03-03T02:33:47.147Z,99.99
2016-03-03T02:34:47.118Z,99.99
2016-03-03T02:35:47.089Z,99.99
2016-03-03T02:36:47.060Z,99.99
2016-03-03T02:37:47.032Z,99.99
2016-03-03T02:38:47.004Z,99.99
2016-03-03T02:39:46.975Z,99.99
2016-03-03T02:40:46.946Z,99.99
2016-03-03T02:41:46.918Z,99.99
2016-03-03T02:42:46.873Z,99.99
2016-03-03T02:43:46.860Z,99.99
2016-03-03T02:44:46.832Z,99.99
2016-03-03T02:45:46.788Z,99.99
2016-03-03T02:46:46.760Z,99.99
2016-03-03T02:47:46.731Z,99.99
2016-03-03T02:48:46.702Z,99.99
2016-03-03T02:49:46.683Z,99.99
2016-03-03T02:50:46.623Z,99.99
2016-03-03T02:51:46.579Z,99.99
2016-03-03T02:52:46.534Z,99.99
2016-03-03T02:53:46.490Z,99.99
2016-03-03T02:54:46.452Z,99.99
2016-03-03T02:55:46.418Z,99.99
2016-03-03T02:56:46.383Z,99.99
2016-03-03T02:57:46.349Z,99.99
2016-03-03T02:58:46.316Z,99.99
2016-03-03T02:59:46.284Z,99.99
2016-03-03T03:00:46.253Z,99.99
2016-03-03T03:01:46.222Z,99.99
2016-03-03T03:02:46.192Z,99.99
2016-03-03T03:03:46.162Z,99.99
2016-03-03T03:04:46.131Z,99.99
2016-03-03T03:05:46.102Z,99.99
2016-03-03T03:06:46.073Z,99.99
2016-03-03T03:07:46.044Z,99.99
2016-03-03T03:08:46.014Z,99.99
2016-03-03T03:09:45.986Z,99.99
2016-03-03T03:10:45.957Z,99.99
2016-03-03T03:11:45.928Z,99.99
2016-03-03T03:12:45.884Z,99.99
2016-03-03T03:13:45.870Z,99.99
2016-03-03T03:14:45.826Z,99.99
2016-03-03T03:15:45.797Z,99.99
2016-03-03T03:16:45.768Z,99.99
2016-03-03T03:17:45.740Z,99.99
2016-03-03T03:18:45.727Z,99.99
2016-03-03T03:19:45.682Z,99.99
2016-03-03T03:20:45.654Z,99.99
2016-03-03T03:21:45.626Z,99.99
2016-03-03T03:22:45.597Z,99.99
2016-03-03T03:23:45.569Z,99.99
2016-03-03T03:24:45.541Z,99.99
2016-03-03T03:25:45.512Z,99.99
2016-03-03T03:26:45.483Z,99.99
2016-03-03T03:27:45.455Z,99.99
2016-03-03T03:28:45.427Z,99.99
2016-03-03T03:29:45.398Z,99.99
2016-03-03T03:30:45.368Z,99.99
2016-03-03T03:31:45.340Z,99.99
2016-03-03T03:32:45.312Z,99.99
2016-03-03T03:33:45.284Z,99.99
2016-03-03T03:34:45.252Z,99.99
2016-03-03T03:35:45.223Z,99.99
2016-03-03T03:36:45.196Z,99.99
2016-03-03T03:37:45.167Z,99.99
2016-03-03T03:38:45.138Z,99.99
2016-03-03T03:39:45.109Z,99.99
2016-03-03T03:40:45.081Z,99.99
2016-03-03T03:41:45.052Z,99.99
2016-03-03T03:42:45.023Z,99.99
2016-03-03T03:43:44.995Z,99.99
2016-03-03T03:44:44.967Z,99.99
2016-03-03T03:45:44.939Z,99.99
2016-03-03T03:46:44.909Z,99.99
2016-03-03T03:47:44.865Z,99.99
2016-03-03T03:48:44.837Z,99.99
2016-03-03T03:49:44.809Z,99.99
2016-03-03T03:50:44.780Z,99.99
2016-03-03T03:51:44.751Z,99.99
2016-03-03T03:52:44.722Z,99.99
2016-03-03T03:53:44.694Z,99.99
2016-03-03T03:54:44.666Z,99.99
2016-03-03T03:55:44.636Z,99.99
2016-03-03T03:56:44.608Z,99.99
2016-03-03T03:57:44.579Z,99.99
2016-03-03T03:58:44.551Z,99.99
2016-03-03T03:59:44.522Z,99.99
2016-03-03T04:00:44.494Z,99.99
2016-03-03T04:01:44.466Z,99.99
2016-03-03T04:02:44.437Z,99.99
2016-03-03T04:03:44.408Z,99.99
2016-03-03T04:04:44.380Z,99.99
2016-03-03T04:05:44.351Z,99.99
2016-03-03T04:06:44.323Z,99.99
2016-03-03T04:07:44.293Z,99.99
2016-03-03T04:08:44.265Z,99.99
2016-03-03T04:09:44.237Z,99.99
2016-03-03T04:10:44.208Z,99.99
2016-03-03T04:11:44.180Z,99.99
2016-03-03T04:12:44.151Z,99.99
2016-03-03T04:13:44.123Z,99.99
2016-03-03T04:14:44.095Z,99.99
2016-03-03T04:15:44.066Z,99.99
2016-03-03T04:16:44.037Z,99.99
2016-03-03T04:17:44.009Z,99.99
2016-03-03T04:18:43.996Z,99.99
2016-03-03T04:19:43.952Z,99.99
2016-03-03T04:20:43.909Z,99.99
2016-03-03T04:21:43.884Z,99.99
2016-03-03T04:22:43.856Z,99.99
2016-03-03T04:23:43.828Z,99.99
2016-03-03T04:24:43.798Z,99.99
2016-03-03T04:25:43.770Z,99.99
2016-03-03T04:26:43.741Z,99.99
2016-03-03T04:27:43.713Z,99.99
2016-03-03T04:28:43.684Z,99.99
2016-03-03T04:29:43.655Z,99.99
2016-03-03T04:30:43.628Z,99.99
2016-03-03T04:31:43.599Z,99.99
2016-03-03T04:32:43.570Z,99.99
2016-03-03T04:33:43.542Z,99.99
2016-03-03T04:34:43.513Z,99.99
2016-03-03T04:35:43.485Z,99.99
2016-03-03T04:36:43.455Z,99.99
2016-03-03T04:37:43.427Z,99.99
2016-03-03T04:38:43.399Z,99.99
2016-03-03T04:39:43.370Z,99.99
2016-03-03T04:40:43.341Z,99.99
2016-03-03T04:41:43.313Z,99.99
2016-03-03T04:42:43.285Z,99.99
2016-03-03T04:43:43.257Z,99.99
2016-03-03T04:44:43.227Z,99.99
2016-03-03T04:45:43.199Z,99.99
2016-03-03T04:46:43.154Z,99.99
2016-03-03T04:47:43.142Z,99.99
2016-03-03T04:48:43.113Z,99.99
2016-03-03T04:49:43.070Z,99.99
2016-03-03T04:50:43.056Z,99.99
2016-03-03T04:51:43.012Z,99.99
2016-03-03T04:52:42.998Z,99.99
2016-03-03T04:53:42.955Z,99.99
2016-03-03T04:54:42.942Z,99.99
2016-03-03T04:55:42.913Z,99.99
2016-03-03T04:56:42.869Z,99.99
2016-03-03T04:57:42.841Z,99.99
2016-03-03T04:58:42.828Z,99.99
2016-03-03T04:59:42.784Z,99.99
2016-03-03T05:00:42.755Z,99.99
2016-03-03T05:01:42.727Z,99.99
2016-03-03T05:02:42.698Z,99.99
2016-03-03T05:03:42.669Z,99.99
2016-03-03T05:04:42.641Z,99.99
2016-03-03T05:05:42.612Z,99.99
2016-03-03T05:06:42.583Z,99.99
2016-03-03T05:07:42.555Z,99.99
2016-03-03T05:08:42.527Z,99.99
2016-03-03T05:09:42.498Z,99.99
2016-03-03T05:10:42.485Z,99.99
2016-03-03T05:11:42.440Z,99.99
2016-03-03T05:12:42.412Z,99.99
2016-03-03T05:13:42.384Z,99.99
2016-03-03T05:14:42.354Z,99.99
2016-03-03T05:15:42.327Z,99.99
2016-03-03T05:16:42.298Z,99.99
2016-03-03T05:17:42.269Z,99.99
2016-03-03T05:18:42.256Z,99.99
2016-03-03T05:19:42.212Z,99.99
2016-03-03T05:20:42.184Z,99.99
2016-03-03T05:21:42.156Z,99.99
2016-03-03T05:22:42.126Z,99.99
2016-03-03T05:23:42.098Z,99.99
2016-03-03T05:24:42.070Z,99.99
2016-03-03T05:25:42.042Z,99.99
2016-03-03T05:26:42.012Z,99.99
2016-03-03T05:27:41.984Z,99.99
2016-03-03T05:28:41.956Z,99.99
2016-03-03T05:29:41.927Z,99.99
2016-03-03T05:30:41.898Z,99.99
2016-03-03T05:31:41.869Z,99.99
2016-03-03T05:32:41.841Z,99.99
2016-03-03T05:33:41.813Z,99.99
2016-03-03T05:34:41.783Z,99.99
2016-03-03T05:35:41.755Z,99.99
2016-03-03T05:36:41.727Z,99.99
2016-03-03T05:37:41.698Z,99.99
2016-03-03T05:38:41.669Z,99.99
2016-03-03T05:39:41.641Z,99.99
2016-03-03T05:40:41.613Z,99.99
2016-03-03T05:41:41.585Z,99.99
2016-03-03T05:42:41.555Z,99.99
2016-03-03T05:43:41.527Z,99.99
2016-03-03T05:44:41.498Z,99.99
2016-03-03T05:45:41.470Z,99.99
2016-03-03T05:46:41.441Z,99.99
2016-03-03T05:47:41.412Z,99.99
2016-03-03T05:48:41.368Z,99.99
2016-03-03T05:49:41.356Z,99.99
2016-03-03T05:50:41.327Z,99.99
2016-03-03T05:51:41.299Z,99.99
2016-03-03T05:52:41.270Z,99.99
2016-03-03T05:53:41.242Z,99.99
2016-03-03T05:54:41.213Z,99.99
2016-03-03T05:55:41.184Z,99.99
2016-03-03T05:56:41.140Z,99.99
2016-03-03T05:57:41.127Z,99.99
2016-03-03T05:58:41.098Z,99.99
2016-03-03T05:59:41.070Z,99.99
2016-03-03T06:00:41.026Z,99.99
2016-03-03T06:01:41.013Z,99.99
2016-03-03T06:02:40.969Z,99.99
2016-03-03T06:03:40.939Z,99.99
2016-03-03T06:04:40.927Z,99.99
2016-03-03T06:05:40.883Z,99.99
2016-03-03T06:06:40.869Z,99.99
2016-03-03T06:07:40.826Z,99.99
2016-03-03T06:08:40.797Z,99.99
2016-03-03T06:09:40.784Z,99.99
2016-03-03T06:10:40.740Z,99.99
2016-03-03T06:11:40.711Z,99.99
2016-03-03T06:12:40.682Z,99.99
2016-03-03T06:13:40.654Z,99.99
2016-03-03T06:14:40.626Z,99.99
2016-03-03T06:15:40.597Z,99.99
2016-03-03T06:16:40.584Z,99.99
2016-03-03T06:17:40.541Z,99.99
2016-03-03T06:18:40.605Z,99.99
2016-03-03T06:19:40.577Z,99.99
2016-03-03T06:20:40.455Z,99.99
2016-03-03T06:21:40.443Z,99.99
2016-03-03T06:22:40.398Z,99.99
2016-03-03T06:23:40.369Z,99.99
2016-03-03T06:24:40.340Z,99.99
2016-03-03T06:25:40.312Z,99.99
2016-03-03T06:26:40.284Z,99.99
2016-03-03T06:27:40.254Z,99.99
2016-03-03T06:28:40.226Z,99.99
2016-03-03T06:29:40.198Z,99.99
2016-03-03T06:30:40.169Z,99.99
2016-03-03T06:31:40.140Z,99.99
2016-03-03T06:32:40.128Z,99.99
2016-03-03T06:33:40.083Z,99.99
2016-03-03T06:34:40.055Z,99.99
2016-03-03T06:35:40.026Z,99.99
2016-03-03T06:36:39.997Z,99.99
2016-03-03T06:37:39.986Z,99.99
2016-03-03T06:38:39.956Z,99.99
2016-03-03T06:39:39.928Z,99.99
2016-03-03T06:40:39.884Z,99.99
2016-03-03T06:41:39.856Z,99.99
2016-03-03T06:42:39.842Z,99.99
2016-03-03T06:43:39.798Z,99.99
2016-03-03T06:44:39.785Z,99.99
2016-03-03T06:45:39.742Z,99.99
2016-03-03T06:46:39.713Z,99.99
2016-03-03T06:47:39.684Z,99.99
2016-03-03T06:48:39.656Z,99.99
2016-03-03T06:49:39.631Z,99.99
2016-03-03T06:50:39.602Z,99.99
2016-03-03T06:51:39.574Z,99.99
2016-03-03T06:52:39.545Z,99.99
2016-03-03T06:53:39.517Z,99.99
2016-03-03T06:54:39.489Z,99.99
2016-03-03T06:55:39.459Z,99.99
2016-03-03T06:56:39.431Z,99.99
2016-03-03T06:57:39.402Z,99.99
2016-03-03T06:58:39.374Z,99.99
2016-03-03T06:59:39.345Z,99.99
2016-03-03T07:00:39.316Z,99.99
2016-03-03T07:01:39.289Z,99.87
2016-03-03T07:02:39.260Z,99.96
2016-03-03T07:03:39.231Z,99.99
2016-03-03T07:04:39.203Z,99.99
2016-03-03T07:05:39.189Z,99.99
2016-03-03T07:06:39.161Z,99.99
2016-03-03T07:07:39.116Z,99.99
2016-03-03T07:08:39.105Z,99.99
2016-03-03T07:09:39.060Z,99.99
2016-03-03T07:10:39.046Z,99.99
2016-03-03T07:11:39.019Z,99.99
2016-03-03T07:12:38.974Z,99.99
2016-03-03T07:13:38.961Z,99.99
2016-03-03T07:14:38.933Z,99.99
2016-03-03T07:15:38.904Z,99.96
2016-03-03T07:16:38.875Z,99.96
2016-03-03T07:17:38.846Z,99.99
2016-03-03T07:18:38.818Z,99.99
2016-03-03T07:19:38.790Z,99.87
2016-03-03T07:20:38.761Z,99.87
2016-03-03T07:21:38.748Z,99.39
2016-03-03T07:22:38.704Z,99.87
2016-03-03T07:23:38.675Z,99.3
2016-03-03T07:24:38.648Z,99.11
2016-03-03T07:25:38.618Z,99.11
2016-03-03T07:26:38.589Z,99.2
2016-03-03T07:27:38.561Z,99.87
2016-03-03T07:28:38.533Z,99.11
2016-03-03T07:29:38.504Z,99.11
2016-03-03T07:30:38.475Z,98.73
2016-03-03T07:31:38.447Z,99.58
2016-03-03T07:32:38.434Z,98.92
2016-03-03T07:33:38.390Z,98.92
2016-03-03T07:34:38.378Z,98.82
2016-03-03T07:35:38.333Z,99.11
2016-03-03T07:36:38.319Z,98.82
2016-03-03T07:37:38.291Z,99.2
2016-03-03T07:38:38.263Z,99.11
2016-03-03T07:39:38.235Z,98.82
2016-03-03T07:40:38.205Z,98.82
2016-03-03T07:41:38.177Z,99.2
2016-03-03T07:42:38.149Z,99.2
2016-03-03T07:43:38.120Z,99.11
2016-03-03T07:44:38.092Z,99.96
2016-03-03T07:45:38.063Z,99.87
2016-03-03T07:46:38.034Z,99.11
2016-03-03T07:47:38.006Z,99.68
2016-03-03T07:48:37.977Z,99.2
2016-03-03T07:49:37.948Z,99.77
2016-03-03T07:50:37.920Z,98.73
2016-03-03T07:51:37.892Z,99.87
2016-03-03T07:52:37.862Z,99.77
2016-03-03T07:53:37.834Z,98.73
2016-03-03T07:54:37.806Z,99.58
2016-03-03T07:55:37.778Z,99.99
2016-03-03T07:56:37.748Z,99.2
2016-03-03T07:57:37.720Z,98.92
2016-03-03T07:58:37.692Z,99.3
2016-03-03T07:59:37.663Z,99.11
2016-03-03T08:00:37.634Z,98.92
2016-03-03T08:01:37.605Z,99.39
2016-03-03T08:02:37.592Z,99.96
2016-03-03T08:03:37.550Z,98.73
2016-03-03T08:04:37.520Z,98.82
2016-03-03T08:05:37.508Z,99.3
2016-03-03T08:06:37.463Z,99.2
2016-03-03T08:07:37.435Z,99.2
2016-03-03T08:08:37.422Z,99.39
2016-03-03T08:09:37.377Z,99.49
2016-03-03T08:10:37.364Z,99.39
2016-03-03T08:11:37.336Z,99.2
2016-03-03T08:12:37.291Z,99.11
2016-03-03T08:13:37.279Z,99.11
2016-03-03T08:14:37.250Z,99.39
2016-03-03T08:15:37.221Z,99.49
2016-03-03T08:16:37.193Z,99.39
2016-03-03T08:17:37.165Z,99.2
2016-03-03T08:18:37.135Z,99.3
2016-03-03T08:19:37.107Z,99.2
2016-03-03T08:20:37.079Z,99.11
2016-03-03T08:21:37.051Z,99.01
2016-03-03T08:22:37.021Z,98.92
2016-03-03T08:23:36.993Z,99.11
2016-03-03T08:24:36.965Z,98.92
2016-03-03T08:25:36.936Z,99.2
2016-03-03T08:26:36.907Z,99.39
2016-03-03T08:27:36.895Z,99.49
2016-03-03T08:28:36.850Z,99.39
2016-03-03T08:29:36.822Z,99.39
2016-03-03T08:30:36.793Z,99.58
2016-03-03T08:31:36.764Z,99.49
2016-03-03T08:32:36.815Z,99.3
2016-03-03T08:33:36.708Z,99.49
2016-03-03T08:34:36.679Z,99.11
2016-03-03T08:35:36.666Z,99.39
2016-03-03T08:36:36.638Z,99.3
2016-03-03T08:37:36.609Z,99.58
2016-03-03T08:38:36.580Z,99.58
2016-03-03T08:39:36.552Z,99.39
2016-03-03T08:40:36.524Z,99.3
2016-03-03T08:41:36.494Z,99.39
2016-03-03T08:42:36.466Z,99.49
2016-03-03T08:43:36.438Z,99.54
2016-03-03T08:44:36.424Z,99.06
2016-03-03T08:45:36.380Z,99.54
2016-03-03T08:46:36.352Z,99.35
2016-03-03T08:47:36.338Z,99.26
2016-03-03T08:48:36.295Z,99.44
2016-03-03T08:49:36.266Z,99.26
2016-03-03T08:50:36.253Z,99.54
2016-03-03T08:51:36.224Z,99.35
2016-03-03T08:52:36.196Z,99.54
2016-03-03T08:53:36.168Z,99.54
2016-03-03T08:54:36.139Z,99.44
2016-03-03T08:55:36.110Z,99.54
2016-03-03T08:56:36.082Z,99.73
2016-03-03T08:57:36.053Z,99.44
2016-03-03T08:58:36.040Z,99.16
2016-03-03T08:59:36.012Z,99.06
2016-03-03T09:00:35.983Z,99.16
2016-03-03T09:01:35.956Z,99.26
2016-03-03T09:02:35.942Z,99.44
2016-03-03T09:03:35.897Z,99.3
2016-03-03T09:04:35.884Z,99.4
2016-03-03T09:05:35.856Z,99.58
2016-03-03T09:06:35.827Z,99.3
2016-03-03T09:07:35.799Z,99.21
2016-03-03T09:08:35.770Z,99.97
2016-03-03T09:09:35.742Z,99.4
2016-03-03T09:10:35.730Z,99.77
2016-03-03T09:11:35.716Z,99.87
2016-03-03T09:12:35.671Z,99.21
2016-03-03T09:13:35.644Z,99.4
2016-03-03T09:14:35.630Z,99.58
2016-03-03T09:15:35.618Z,98.54
2016-03-03T09:16:35.573Z,99.02
2016-03-03T09:17:35.544Z,99.3
2016-03-03T09:18:35.516Z,99.58
2016-03-03T09:19:35.504Z,99.4
2016-03-03T09:20:35.474Z,98.92
2016-03-03T09:21:35.446Z,99.02
2016-03-03T09:22:35.449Z,99.07
2016-03-03T09:23:35.389Z,98.88
2016-03-03T09:24:35.376Z,98.88
2016-03-03T09:25:35.347Z,99.07
2016-03-03T09:26:35.318Z,99.26
2016-03-03T09:27:35.306Z,99.35
2016-03-03T09:28:35.278Z,98.5
2016-03-03T09:29:35.248Z,98.79
2016-03-03T09:30:35.220Z,98.59
2016-03-03T09:31:35.192Z,98.02
2016-03-03T09:32:35.178Z,97.92
2016-03-03T09:33:35.181Z,98.12
2016-03-03T09:34:35.136Z,97.55
2016-03-03T09:35:35.109Z,97.74
2016-03-03T09:36:35.111Z,98.02
2016-03-03T09:37:35.052Z,98.69
2016-03-03T09:38:35.023Z,98.69
2016-03-03T09:39:35.010Z,98.45
2016-03-03T09:40:34.981Z,98.45
2016-03-03T09:41:34.953Z,97.78
2016-03-03T09:42:34.940Z,97.78
2016-03-03T09:43:34.911Z,98.17
2016-03-03T09:44:34.899Z,97.5
2016-03-03T09:45:34.854Z,97.69
2016-03-03T09:46:34.842Z,97.31
2016-03-03T09:47:34.813Z,97.03
2016-03-03T09:48:34.800Z,97.03
2016-03-03T09:49:34.771Z,96.84
2016-03-03T09:50:34.758Z,96.84
2016-03-03T09:51:34.714Z,96.84
2016-03-03T09:52:34.701Z,96.65
2016-03-03T09:53:34.673Z,96.93
2016-03-03T09:54:34.644Z,96.93
2016-03-03T09:55:34.631Z,96.65
2016-03-03T09:56:34.603Z,97.03
2016-03-03T09:57:34.574Z,96.84
2016-03-03T09:58:34.546Z,97.03
2016-03-03T09:59:34.532Z,96.65
2016-03-03T10:00:34.504Z,97.12
2016-03-03T10:01:34.492Z,96.93
2016-03-03T10:02:34.462Z,96.55
2016-03-03T10:03:34.434Z,97.12
2016-03-03T10:04:34.406Z,96.69
2016-03-03T10:05:34.392Z,96.93
2016-03-03T10:06:34.364Z,96.93
2016-03-03T10:07:34.350Z,96.98
2016-03-03T10:08:34.322Z,96.98
2016-03-03T10:09:34.294Z,96.5
2016-03-03T10:10:34.280Z,96.98
2016-03-03T10:11:34.284Z,96.12
2016-03-03T10:12:34.224Z,96.31
2016-03-03T10:13:34.211Z,96.41
2016-03-03T10:14:34.197Z,96.22
2016-03-03T10:15:34.169Z,96.31
2016-03-03T10:16:34.140Z,95.84
2016-03-03T10:17:34.112Z,95.84
2016-03-03T10:18:34.099Z,95.75
2016-03-03T10:19:34.070Z,95.75
2016-03-03T10:20:34.042Z,95.56
2016-03-03T10:21:34.029Z,95.56
2016-03-03T10:22:34.001Z,95.56
2016-03-03T10:23:34.018Z,95.56
2016-03-03T10:24:33.959Z,95.56
2016-03-03T10:25:33.931Z,95.75
2016-03-03T10:26:33.901Z,95.08
2016-03-03T10:27:33.889Z,95.75
2016-03-03T10:28:33.860Z,95.75
2016-03-03T10:29:33.831Z,95.65
2016-03-03T10:30:33.819Z,95.94
2016-03-03T10:31:33.790Z,95.56
2016-03-03T10:32:33.777Z,95.65
2016-03-03T10:33:33.748Z,95.79
2016-03-03T10:34:33.720Z,95.36
2016-03-03T10:35:33.707Z,95.6
2016-03-03T10:36:33.678Z,95.79
2016-03-03T10:37:33.666Z,95.6
2016-03-03T10:38:33.637Z,95.79
2016-03-03T10:39:33.624Z,95.51
2016-03-03T10:40:33.580Z,95.22
2016-03-03T10:41:33.567Z,94.56
2016-03-03T10:42:33.554Z,95.08
2016-03-03T10:43:33.525Z,95.56
2016-03-03T10:44:33.497Z,95.32
2016-03-03T10:45:33.484Z,95.79
2016-03-03T10:46:33.455Z,95.89
2016-03-03T10:47:33.427Z,95.32
2016-03-03T10:48:33.413Z,95.41
2016-03-03T10:49:33.385Z,95.03
2016-03-03T10:50:33.373Z,94.93
2016-03-03T10:51:33.344Z,95.03
2016-03-03T10:52:33.315Z,94.7
2016-03-03T10:53:33.302Z,94.7
2016-03-03T10:54:33.274Z,95.46
2016-03-03T10:55:33.245Z,95.27
2016-03-03T10:56:33.232Z,95.46
2016-03-03T10:57:33.204Z,95.84
2016-03-03T10:58:33.190Z,95.36
2016-03-03T10:59:33.162Z,95.94
2016-03-03T11:00:33.134Z,95.75
2016-03-03T11:01:33.136Z,95.65
2016-03-03T11:02:33.092Z,95.56
2016-03-03T11:03:33.064Z,95.84
2016-03-03T11:04:33.050Z,96.22
2016-03-03T11:05:33.022Z,95.94
2016-03-03T11:06:32.994Z,96.12
2016-03-03T11:07:32.981Z,95.94
2016-03-03T11:08:32.952Z,95.84
2016-03-03T11:09:32.924Z,96.12
2016-03-03T11:10:32.911Z,96.22
2016-03-03T11:11:32.882Z,96.22
2016-03-03T11:12:32.853Z,96.36
2016-03-03T11:13:32.833Z,96.26
2016-03-03T11:14:32.819Z,96.12
2016-03-03T11:15:32.791Z,96.12
2016-03-03T11:16:32.776Z,96.03
2016-03-03T11:17:32.746Z,95.89
2016-03-03T11:18:32.718Z,95.79
2016-03-03T11:19:32.705Z,95.84
2016-03-03T11:20:32.677Z,95.98
2016-03-03T11:21:32.664Z,95.79
2016-03-03T11:22:32.636Z,95.94
2016-03-03T11:23:32.607Z,95.7
2016-03-03T11:24:32.593Z,95.79
2016-03-03T11:25:32.566Z,95.08
2016-03-03T11:26:32.553Z,95.17
2016-03-03T11:27:32.523Z,95.08
2016-03-03T11:28:32.496Z,96.12
2016-03-03T11:29:32.482Z,95.65
2016-03-03T11:30:32.454Z,95.75
2016-03-03T11:31:32.441Z,95.84
2016-03-03T11:32:32.412Z,95.56
2016-03-03T11:33:32.384Z,95.94
2016-03-03T11:34:32.370Z,95.84
2016-03-03T11:35:32.342Z,95.84
2016-03-03T11:36:32.314Z,95.36
2016-03-03T11:37:32.301Z,95.94
2016-03-03T11:38:32.272Z,95.65
2016-03-03T11:39:32.244Z,96.22
2016-03-03T11:40:32.231Z,96.12
2016-03-03T11:41:32.233Z,96.36
2016-03-03T11:42:32.189Z,96.89
2016-03-03T11:43:32.161Z,96.74
2016-03-03T11:44:32.147Z,95.89
2016-03-03T11:45:32.119Z,96.74
2016-03-03T11:46:32.091Z,95.79
2016-03-03T11:47:32.124Z,95.41
2016-03-03T11:48:32.049Z,95.98
2016-03-03T11:49:32.036Z,96.08
2016-03-03T11:50:32.023Z,95.98
2016-03-03T11:51:31.995Z,95.98
2016-03-03T11:52:31.966Z,95.6
2016-03-03T11:53:31.938Z,95.84
2016-03-03T11:54:31.924Z,96.03
2016-03-03T11:55:31.910Z,95.94
2016-03-03T11:56:31.873Z,96.03
2016-03-03T11:57:31.897Z,95.94
2016-03-03T11:58:31.814Z,95.75
2016-03-03T11:59:31.779Z,96.12
2016-03-03T12:00:31.775Z,95.56
2016-03-03T12:01:31.727Z,94.98
2016-03-03T12:02:31.711Z,94.32
2016-03-03T12:03:31.681Z,94.7
2016-03-03T12:04:31.664Z,94.6
2016-03-03T12:05:31.633Z,94.98
2016-03-03T12:06:31.619Z,94.89
2016-03-03T12:07:31.589Z,95.27
2016-03-03T12:08:31.575Z,95.03
2016-03-03T12:09:31.545Z,95.6
2016-03-03T12:10:31.530Z,95.6
2016-03-03T12:11:31.518Z,95.22
2016-03-03T12:12:31.488Z,95.32
2016-03-03T12:13:31.460Z,95.51
2016-03-03T12:14:31.447Z,96.08
2016-03-03T12:15:31.418Z,95.32
2016-03-03T12:16:31.405Z,95.98
2016-03-03T12:17:31.375Z,95.89
2016-03-03T12:18:31.378Z,96.08
2016-03-03T12:19:31.333Z,95.6
2016-03-03T12:20:31.320Z,96.08
2016-03-03T12:21:31.292Z,96.03
2016-03-03T12:22:31.278Z,96.12
2016-03-03T12:23:31.250Z,95.46
2016-03-03T12:24:31.236Z,95.46
2016-03-03T12:25:31.318Z,95.84
2016-03-03T12:26:31.211Z,95.56
2016-03-03T12:27:31.214Z,95.51
2016-03-03T12:28:31.153Z,95.65
2016-03-03T12:29:31.141Z,95.65
2016-03-03T12:30:31.113Z,95.17
2016-03-03T12:31:31.100Z,95.65
2016-03-03T12:32:31.071Z,95.08
2016-03-03T12:33:31.042Z,94.41
2016-03-03T12:34:31.030Z,94.65
2016-03-03T12:35:31.002Z,94.7
2016-03-03T12:36:30.988Z,94.46
2016-03-03T12:37:30.960Z,94.84
2016-03-03T12:38:30.946Z,94.74
2016-03-03T12:39:30.918Z,94.89
2016-03-03T12:40:30.905Z,95.08
2016-03-03T12:41:31.048Z,94.13
2016-03-03T12:42:30.864Z,94.13
2016-03-03T12:43:30.851Z,94.32
2016-03-03T12:44:30.821Z,93.74
2016-03-03T12:45:30.810Z,93.41
2016-03-03T12:46:30.781Z,93.79
2016-03-03T12:47:30.767Z,93.79
2016-03-03T12:48:30.739Z,94.37
2016-03-03T12:49:30.726Z,94.37
2016-03-03T12:50:30.698Z,94.27
2016-03-03T12:51:30.684Z,94.08
2016-03-03T12:52:30.656Z,94.08
2016-03-03T12:53:30.643Z,93.79
2016-03-03T12:54:30.614Z,93.6